Skip Navigation Links
NOAA logo - Click to go to the NOAA homepage
NOAA's National Weather Service
Alaska Aviation Weather Unit
  NWS logo - Click to go to the NWS homepage
Left Navbar Graphic     03 AKDT = 11 GMT

   
NOAA is celebrating 200 years of science, service, and stewardship. Visit the NOAA 200th celebration Web site to learn more.
USA.gov is the U.S. Government's official Web portal to all Federal, state and local government Web resources and services.
Facebook
NWS on Facebook

AAWU Home :: Display TAF Add Bookmark
TAF PAHO 290522Z 2906/3006 VRB03KT P6SM SCT040
     FM291500 25006KT P6SM VCSH BKN035
     FM292100 24012KT P6SM SCT035=

METAR PAHO 290553Z AUTO 27003KT 10SM FEW040 01/M05 A2952 RMK AO2 SLP996 T00061050 10033 20000 53013 TSNO= METAR PAHO 290653Z AUTO VRB04KT 10SM FEW110 00/M07 A2953 RMK AO2 SLP000 T00001067 TSNO= METAR PAHO 290753Z AUTO 27003KT 10SM FEW042 M01/M07 A2954 RMK AO2 SLP004 T10061072 TSNO= METAR PAHO 290853Z AUTO 00000KT 10SM FEW042 BKN110 00/M07 A2954 RMK AO2 SLP003 T00001072 400331044 50007 TSNO= METAR PAHO 290953Z AUTO 30004KT 10SM SCT039 BKN110 M01/M07 A2954 RMK AO2 SLP004 T10061067 TSNO= METAR PAHO 291053Z AUTO 31003KT 10SM CLR M01/M07 A2954 RMK SLP004 T10111072 TSNO VIA AUTODIAL=
 Alaska TAF Map

NOAA's National Weather Service
Alaska Aviation Weather Unit
6930 Sand Lake Road
Anchorage, AK 99502-1845
Disclaimer
Credits
Glossary
Privacy Policy
About Us
Career Opportunities
Contact AAWU Internet Services Site last modified: April, 17th 2012